Time;durP1;ratioP1;P1;durP2;ratioP2;P2;SDS_P1;SDS_P2;PMS_P1;PMS_P2;Temp;Humidity;BMP_temperature;BMP_pressure;BME280_temperature;BME280_humidity;BME280_pressure;Samples;Min_cycle;Max_cycle;Signal;HPM_P1;HPM_P2
2022/10/24 00:00:38;;;;;;;;;;;;;;;16.02;77.12;101269.97;6134865;23;20024;-82
2022/10/24 00:03:24;;;;;;;8.13;2.90;;;;;;;16.10;76.67;101267.13;6133693;23;19908;-80
2022/10/24 00:06:10;;;;;;;7.13;3.75;;;;;;;16.06;76.82;101265.41;6135204;23;20024;-80
2022/10/24 00:08:55;;;;;;;9.43;2.80;;;;;;;15.96;77.58;101261.13;6154693;23;20088;-81
2022/10/24 00:11:41;;;;;;;9.25;3.17;;;;;;;15.81;78.27;101264.50;6134280;23;20024;-82
2022/10/24 00:14:26;;;;;;;7.05;3.28;;;;;;;15.79;78.42;101266.81;6134490;23;20075;-81
2022/10/24 00:17:11;;;;;;;11.32;3.80;;;;;;;15.72;79.05;101266.53;6133671;23;20029;-81
2022/10/24 00:19:57;;;;;;;;;;;;;;;15.73;78.98;101251.69;6134136;23;20079;-82
2022/10/24 00:22:42;;;;;;;9.32;3.85;;;;;;;15.78;78.61;101240.50;6134809;23;19912;-82
2022/10/24 00:25:27;;;;;;;19.92;3.95;;;;;;;15.74;78.67;101245.06;6133815;23;20498;-80
2022/10/24 00:28:11;;;;;;;;;;;;;;;15.73;78.62;101251.69;6127720;23;20049;-82
2022/10/24 00:30:57;;;;;;;9.85;3.35;;;;;;;15.68;78.46;101247.22;6133139;23;19908;-82
2022/10/24 00:33:43;;;;;;;8.45;3.10;;;;;;;15.71;78.32;101251.22;6133108;23;20033;-79
2022/10/24 00:36:28;;;;;;;14.07;3.15;;;;;;;15.68;78.05;101249.16;6133971;23;20025;-82
2022/10/24 00:39:12;;;;;;;9.00;2.75;;;;;;;15.65;78.14;101255.28;6154443;23;20025;-80
2022/10/24 00:42:00;;;;;;;10.20;2.95;;;;;;;15.66;77.88;101248.69;6133549;23;20025;-81
2022/10/24 00:44:45;;;;;;;9.15;3.10;;;;;;;15.50;78.06;101244.91;6134896;23;20024;-82
2022/10/24 00:47:30;;;;;;;6.97;2.58;;;;;;;15.40;78.72;101251.59;6133514;23;20478;-81
2022/10/24 00:50:14;;;;;;;11.18;3.45;;;;;;;15.68;77.89;101243.69;6133527;23;20347;-81
2022/10/24 00:52:59;;;;;;;6.30;2.95;;;;;;;15.66;78.02;101248.69;6133007;23;20029;-78
2022/10/24 00:55:45;;;;;;;;;;;;;;;15.64;78.05;101254.53;6133723;23;20025;-80
2022/10/24 00:58:33;;;;;;;10.73;3.90;;;;;;;15.48;79.18;101250.75;6125410;23;19908;-81
2022/10/24 01:01:18;;;;;;;11.27;3.03;;;;;;;15.38;79.56;101257.44;6132928;23;20028;-80
2022/10/24 01:04:03;;;;;;;;;;;;;;;15.39;79.49;101264.50;6134736;23;20690;-80
2022/10/24 01:07:22;;;;;;;14.32;3.00;;;;;;;15.38;79.10;101279.38;6132997;23;20326;-80
2022/10/24 01:10:32;;;;;;;7.93;3.05;;;;;;;15.29;79.12;101264.09;6134349;23;20029;-82
2022/10/24 01:13:45;;;;;;;22.25;5.03;;;;;;;15.36;80.17;101259.69;6132693;23;20041;-81
2022/10/24 01:16:53;;;;;;;8.75;4.13;;;;;;;15.35;80.39;101262.75;6132899;23;20037;-81
2022/10/24 01:19:56;;;;;;;10.95;5.15;;;;;;;15.33;80.75;101252.16;6155569;23;20033;-84
2022/10/24 01:22:58;;;;;;;15.20;5.03;;;;;;;15.44;81.24;101257.25;6175617;23;20015;-84
2022/10/24 01:25:49;;;;;;;18.75;6.68;;;;;;;15.34;82.38;101256.47;6175800;23;20504;-84
2022/10/24 01:28:56;;;;;;;14.95;6.65;;;;;;;15.19;83.34;101259.00;6162528;23;20025;-84
2022/10/24 01:31:53;;;;;;;14.10;6.30;;;;;;;15.17;83.93;101247.59;6145656;23;20024;-84
2022/10/24 01:34:40;;;;;;;8.80;5.30;;;;;;;15.37;81.60;101236.66;6146647;23;20040;-84
2022/10/24 01:37:31;;;;;;;12.52;5.05;;;;;;;15.43;81.18;101241.94;6146081;23;20020;-84
2022/10/24 01:40:31;;;;;;;16.50;5.15;;;;;;;15.04;83.51;101235.75;6145003;23;20066;-84
2022/10/24 01:43:21;;;;;;;14.63;6.22;;;;;;;15.02;84.33;101220.78;6144672;23;20020;-84
2022/10/24 01:46:18;;;;;;;15.48;6.10;;;;;;;15.09;84.41;101212.81;6146771;23;20024;-84
2022/10/24 01:49:12;;;;;;;8.15;4.30;;;;;;;15.13;83.36;101222.81;6140493;23;20024;-84
2022/10/24 01:52:01;;;;;;;9.57;4.55;;;;;;;15.17;82.65;101226.47;6152111;23;20386;-82
2022/10/24 01:54:47;;;;;;;9.75;4.68;;;;;;;15.03;83.22;101216.94;6152186;23;20024;-84
2022/10/24 01:57:33;;;;;;;12.20;4.75;;;;;;;15.10;82.02;101223.47;6152192;23;20028;-84
2022/10/24 02:00:19;;;;;;;16.25;5.65;;;;;;;14.83;83.35;101211.06;6151756;23;20020;-85
2022/10/24 02:03:15;;;;;;;12.30;4.65;;;;;;;14.78;83.44;101222.22;6150243;23;20020;-85
2022/10/24 02:06:06;;;;;;;17.30;5.90;;;;;;;14.74;83.95;101220.47;6153017;23;20359;-85
2022/10/24 02:08:57;;;;;;;12.23;5.13;;;;;;;15.00;81.72;101218.38;6155384;23;20048;-84
2022/10/24 02:11:44;;;;;;;12.25;5.40;;;;;;;14.97;81.61;101210.84;6155720;23;20028;-84
2022/10/24 02:14:35;;;;;;;13.75;5.60;;;;;;;15.18;80.79;101205.38;6154148;23;20024;-83
2022/10/24 02:17:19;;;;;;;12.07;5.18;;;;;;;15.02;81.26;101204.34;6154128;23;20024;-85
2022/10/24 02:20:05;;;;;;;;;;;;;;;14.87;82.26;101197.53;6151965;23;20020;-84
2022/10/24 02:23:02;;;;;;;8.20;4.03;;;;;;;14.95;81.79;101204.88;6144806;23;20319;-85
2022/10/24 02:25:51;;;;;;;18.75;5.75;;;;;;;15.07;81.38;101201.41;6144785;23;20028;-85
2022/10/24 02:28:43;;;;;;;8.93;4.97;;;;;;;14.95;82.10;101192.00;6142218;23;20020;-84
2022/10/24 02:31:35;;;;;;;16.95;6.07;;;;;;;15.02;82.35;101196.13;6150875;23;20024;-83
2022/10/24 02:34:23;;;;;;;21.30;6.50;;;;;;;14.88;83.26;101193.66;6151593;23;20028;-83
2022/10/24 02:37:11;;;;;;;7.97;5.32;;;;;;;14.92;83.51;101183.66;6161740;23;20045;-82
2022/10/24 02:39:58;;;;;;;19.92;5.53;;;;;;;14.94;83.11;101186.84;6163488;23;20073;-83
2022/10/24 02:42:45;;;;;;;19.58;6.20;;;;;;;14.89;83.17;101190.56;6163225;23;20062;-82
2022/10/24 02:45:32;;;;;;;19.17;5.25;;;;;;;14.80;83.15;101178.06;6163652;23;20127;-83
2022/10/24 02:48:22;;;;;;;11.95;5.25;;;;;;;14.85;83.04;101175.94;6157188;23;20036;-84
2022/10/24 02:51:08;;;;;;;21.70;5.63;;;;;;;14.80;83.04;101175.34;6153642;23;20044;-84
2022/10/24 02:53:55;;;;;;;11.93;5.15;;;;;;;14.95;82.70;101178.28;6153589;23;20037;-84
2022/10/24 02:56:46;;;;;;;12.23;4.50;;;;;;;14.86;82.47;101174.81;6153272;23;20033;-83
2022/10/24 02:59:30;;;;;;;9.43;4.28;;;;;;;14.75;83.33;101173.59;6152855;23;20024;-84
2022/10/24 03:02:15;;;;;;;9.35;3.92;;;;;;;14.86;82.25;101166.59;6152912;23;20485;-84
2022/10/24 03:05:00;;;;;;;17.15;4.72;;;;;;;14.93;81.71;101172.34;6151272;23;20020;-83
2022/10/24 03:07:45;;;;;;;;;;;;;;;15.04;80.99;101170.00;6152005;23;20024;-84
2022/10/24 03:10:30;;;;;;;11.27;4.05;;;;;;;14.86;81.91;101168.53;6152503;23;20310;-84
2022/10/24 03:13:15;;;;;;;9.40;4.22;;;;;;;14.77;83.43;101176.81;6154077;23;20004;-84
2022/10/24 03:16:00;;;;;;;7.18;3.33;;;;;;;14.76;82.88;101175.22;6150090;23;20020;-84
2022/10/24 03:18:45;;;;;;;;;;;;;;;14.91;81.92;101165.59;6144638;23;20024;-83
2022/10/24 03:21:29;;;;;;;10.32;3.50;;;;;;;14.82;81.71;101171.16;6144804;23;19909;-83
2022/10/24 03:24:14;;;;;;;;;;;;;;;14.75;82.08;101172.78;6143758;23;20020;-84
2022/10/24 03:26:59;;;;;;;12.55;3.20;;;;;;;14.84;81.95;101165.31;6145073;23;19928;-82
2022/10/24 03:29:43;;;;;;;12.95;3.13;;;;;;;14.90;81.72;101166.72;6144846;23;20350;-84
2022/10/24 03:32:28;;;;;;;6.63;2.53;;;;;;;14.88;81.63;101169.78;6147298;23;20351;-83
2022/10/24 03:35:13;;;;;;;10.20;4.63;;;;;;;14.72;82.71;101168.00;6149153;23;20021;-84
2022/10/24 03:37:58;;;;;;;9.85;3.85;;;;;;;14.72;82.79;101174.28;6147671;23;20024;-83
2022/10/24 03:40:42;;;;;;;7.55;3.75;;;;;;;14.83;82.25;101166.47;6148144;23;20025;-84
2022/10/24 03:43:27;;;;;;;;;;;;;;;14.68;82.74;101172.53;6147932;23;20028;-83
2022/10/24 03:46:12;;;;;;;13.65;3.67;;;;;;;14.64;83.21;101177.03;6147013;23;20254;-82
2022/10/24 03:48:57;;;;;;;;;;;;;;;14.62;84.14;101185.59;6148294;23;20032;-82
2022/10/24 03:51:42;;;;;;;10.15;2.53;;;;;;;14.58;84.35;101190.13;6144480;23;19908;-84
2022/10/24 03:54:27;;;;;;;;;;;;;;;14.69;83.08;101185.06;6145383;23;20024;-84
2022/10/24 03:57:12;;;;;;;7.47;3.50;;;;;;;14.86;82.80;101179.50;6145245;23;19909;-84
2022/10/24 03:59:57;;;;;;;;;;;;;;;14.82;82.67;101186.78;6146822;23;20020;-84
2022/10/24 04:02:41;;;;;;;11.95;3.63;;;;;;;14.66;84.34;101185.75;6146579;23;20493;-84
2022/10/24 04:05:26;;;;;;;;;;;;;;;14.94;83.07;101170.41;6149608;23;20028;-83
2022/10/24 04:08:11;;;;;;;9.40;3.63;;;;;;;14.83;83.21;101171.97;6147097;23;19909;-83
2022/10/24 04:10:56;;;;;;;11.70;5.38;;;;;;;14.92;83.46;101161.75;6147249;23;20020;-82
2022/10/24 04:13:40;;;;;;;11.48;4.68;;;;;;;14.84;83.82;101152.44;6145295;23;20024;-83
2022/10/24 04:16:26;;;;;;;14.45;4.45;;;;;;;14.84;83.79;101148.91;6146893;23;20029;-84
2022/10/24 04:19:11;;;;;;;15.45;5.10;;;;;;;14.90;83.40;101150.31;6146328;23;20024;-84
2022/10/24 04:21:56;;;;;;;;;;;;;;;14.76;83.19;101152.50;6151763;23;20020;-84
2022/10/24 04:24:41;;;;;;;10.13;4.25;;;;;;;14.53;85.31;101166.47;6152503;23;19908;-84
2022/10/24 04:27:26;;;;;;;10.07;3.80;;;;;;;14.48;86.18;101177.59;6150498;23;20028;-84
2022/10/24 04:30:12;;;;;;;11.90;6.45;;;;;;;14.50;86.54;101180.03;6150191;23;20024;-84
2022/10/24 04:32:57;;;;;;;13.93;5.60;;;;;;;14.50;86.50;101169.88;6147577;23;20367;-85
2022/10/24 04:35:46;;;;;;;22.13;6.15;;;;;;;14.51;86.97;101185.19;6145614;23;20032;-85
2022/10/24 04:38:31;;;;;;;20.13;7.05;;;;;;;14.55;86.45;101177.09;6146300;23;20020;-85
2022/10/24 04:41:16;;;;;;;;;;;;;;;14.52;87.02;101186.78;6146958;23;20024;-86
2022/10/24 04:44:01;;;;;;;17.98;6.72;;;;;;;14.55;87.32;101174.38;6144438;23;19908;-85
2022/10/24 04:46:45;;;;;;;19.67;6.70;;;;;;;14.64;86.92;101177.03;6144879;23;20020;-84
2022/10/24 04:49:30;;;;;;;14.05;8.65;;;;;;;14.70;86.42;101175.72;6144508;23;20024;-84
2022/10/24 04:52:15;;;;;;;;;;;;;;;14.86;85.53;101172.09;6152530;23;20020;-82
2022/10/24 04:55:00;;;;;;;13.15;6.68;;;;;;;14.92;85.40;101172.69;6154039;23;19912;-84
2022/10/24 04:57:45;;;;;;;19.05;6.03;;;;;;;14.92;85.26;101169.94;6154316;23;20008;-81
2022/10/24 05:00:30;;;;;;;;;;;;;;;15.03;84.52;101170.38;6149374;23;20024;-84
2022/10/24 05:03:18;;;;;;;17.80;6.88;;;;;;;15.01;84.00;101165.22;6149145;23;19909;-85
2022/10/24 05:06:04;;;;;;;16.48;6.88;;;;;;;15.03;84.20;101162.94;6154024;23;20024;-85
2022/10/24 05:08:49;;;;;;;11.55;6.38;;;;;;;14.86;84.34;101158.38;6147845;23;20024;-85
2022/10/24 05:11:34;;;;;;;17.20;6.70;;;;;;;14.85;84.81;101153.25;6147573;23;20028;-85
2022/10/24 05:14:19;;;;;;;16.48;6.88;;;;;;;15.00;84.34;101152.66;6144204;23;20066;-84
2022/10/24 05:17:03;;;;;;;16.70;6.15;;;;;;;14.79;85.20;101138.94;6148226;23;20568;-86
2022/10/24 05:19:48;;;;;;;18.02;6.97;;;;;;;14.69;86.08;101154.94;6140520;23;20076;-86
2022/10/24 05:22:34;;;;;;;15.65;5.90;;;;;;;14.67;85.86;101151.75;6147133;23;20021;-85
2022/10/24 05:25:19;;;;;;;11.30;5.75;;;;;;;14.78;85.71;101147.50;6148733;23;20020;-86
2022/10/24 05:28:03;;;;;;;;;;;;;;;14.79;85.28;101163.59;6149780;23;20024;-83
2022/10/24 05:30:48;;;;;;;17.50;5.53;;;;;;;14.76;85.34;101155.25;6155793;23;19908;-84
2022/10/24 05:33:33;;;;;;;17.30;6.22;;;;;;;14.78;85.17;101158.47;6150347;23;20020;-87
2022/10/24 05:36:18;;;;;;;;;;;;;;;14.72;85.00;101149.63;6148706;23;20032;-87
2022/10/24 05:39:03;;;;;;;22.75;6.13;;;;;;;14.63;85.40;101154.34;6138229;23;19909;-87
2022/10/24 05:41:47;;;;;;;27.70;7.28;;;;;;;14.71;85.48;101156.25;6142840;23;20032;-86
2022/10/24 05:44:33;;;;;;;;;;;;;;;14.69;85.90;101146.75;6145282;23;20016;-85
2022/10/24 05:47:17;;;;;;;14.27;6.57;;;;;;;14.70;86.05;101149.16;6148402;23;19909;-86
2022/10/24 05:50:03;;;;;;;;;;;;;;;14.74;85.44;101152.03;6149468;23;20240;-86
2022/10/24 05:52:47;;;;;;;19.38;5.95;;;;;;;14.77;85.39;101156.84;6146739;23;19913;-85
2022/10/24 05:55:33;;;;;;;;;;;;;;;14.67;85.04;101155.31;6146700;23;20028;-85
2022/10/24 05:58:20;;;;;;;28.98;6.28;;;;;;;14.76;84.83;101150.56;6143227;23;19913;-85
2022/10/24 06:01:04;;;;;;;14.02;5.93;;;;;;;14.91;83.89;101143.69;6140975;23;20028;-85
2022/10/24 06:03:49;;;;;;;13.98;4.65;;;;;;;14.94;83.75;101145.75;6144815;23;20350;-85
2022/10/24 06:06:40;;;;;;;30.48;6.55;;;;;;;15.01;83.10;101148.78;6143031;23;20020;-84
2022/10/24 06:09:25;;;;;;;32.50;6.80;;;;;;;15.07;82.65;101155.66;6144577;23;20020;-84
2022/10/24 06:12:10;;;;;;;;;;;;;;;15.17;82.59;101155.25;6146142;23;20028;-84
2022/10/24 06:14:56;;;;;;;17.23;5.80;;;;;;;15.14;82.08;101152.38;6146732;23;19916;-83
2022/10/24 06:17:41;;;;;;;24.67;6.40;;;;;;;15.14;82.27;101155.91;6139341;23;20025;-84
2022/10/24 06:20:29;;;;;;;28.88;6.53;;;;;;;15.32;81.53;101148.34;6141733;23;20021;-85
2022/10/24 06:23:13;;;;;;;;;;;;;;;15.38;81.27;101152.50;6144552;23;20028;-85
2022/10/24 06:25:58;;;;;;;19.37;5.00;;;;;;;15.48;80.94;101151.28;6146571;23;19908;-84
2022/10/24 06:28:44;;;;;;;29.42;6.95;;;;;;;15.62;80.26;101149.88;6144620;23;20050;-84
2022/10/24 06:31:28;;;;;;;;;;;;;;;15.76;79.93;101155.03;6145368;23;20032;-85
2022/10/24 06:34:13;;;;;;;39.92;7.93;;;;;;;15.87;79.34;101147.97;6143561;23;19926;-84
2022/10/24 06:36:58;;;;;;;23.08;6.93;;;;;;;15.86;79.32;101145.56;6145944;23;20030;-85
2022/10/24 06:39:43;;;;;;;20.77;6.97;;;;;;;15.85;79.82;101152.22;6137208;23;20024;-85
2022/10/24 06:42:29;;;;;;;27.27;6.85;;;;;;;15.92;79.45;101161.47;6142932;23;20024;-85
2022/10/24 06:45:15;;;;;;;26.23;5.82;;;;;;;16.07;79.08;101170.97;6147391;23;20035;-84
2022/10/24 06:47:59;;;;;;;22.40;5.78;;;;;;;16.30;78.30;101171.34;6150865;23;20024;-85
2022/10/24 06:50:44;;;;;;;42.15;7.28;;;;;;;16.36;78.06;101178.19;6148444;23;20032;-85
2022/10/24 06:53:33;;;;;;;26.27;6.65;;;;;;;16.50;78.11;101171.25;6149466;23;20020;-85
2022/10/24 06:56:18;;;;;;;22.85;6.22;;;;;;;16.49;78.40;101171.59;6147811;23;20024;-85
2022/10/24 06:59:07;;;;;;;;;;;;;;;16.49;78.76;101177.06;6140368;23;20028;-84
2022/10/24 07:01:51;;;;;;;34.75;7.47;;;;;;;16.59;78.81;101179.38;6145683;23;19908;-88
2022/10/24 07:04:36;;;;;;;22.58;6.68;;;;;;;16.57;79.16;101181.63;6145765;23;20020;-85
2022/10/24 07:07:21;;;;;;;32.45;5.88;;;;;;;16.72;78.74;101182.91;6145779;23;20021;-85
2022/10/24 07:10:06;;;;;;;;;;;;;;;16.96;78.01;101177.41;6141591;23;20361;-83
2022/10/24 07:12:51;;;;;;;9.65;4.45;;;;;;;17.61;76.40;101172.63;6140014;23;20245;-82
2022/10/24 07:15:36;;;;;;;26.48;7.05;;;;;;;17.86;74.62;101161.13;6139671;23;20037;-82
2022/10/24 07:18:21;;;;;;;;;;;;;;;18.18;74.00;101177.66;6136919;23;20033;-81
2022/10/24 07:21:10;;;;;;;24.98;7.28;;;;;;;18.33;72.75;101168.59;6141492;23;19917;-77
2022/10/24 07:23:56;;;;;;;27.75;6.60;;;;;;;18.65;71.55;101174.88;6164201;23;20017;-79
2022/10/24 07:26:40;;;;;;;19.70;6.90;;;;;;;18.80;70.40;101176.81;6165226;23;20040;-79
2022/10/24 07:29:26;;;;;;;18.17;5.03;;;;;;;19.02;70.31;101178.09;6163508;23;20024;-80
2022/10/24 07:32:11;;;;;;;12.90;6.47;;;;;;;19.22;69.09;101179.69;6140563;23;20367;-76
2022/10/24 07:34:55;;;;;;;30.35;6.97;;;;;;;19.16;69.39;101181.13;6135505;23;20025;-79
2022/10/24 07:37:40;;;;;;;38.00;7.70;;;;;;;19.43;68.42;101169.09;6135540;23;20028;-78
2022/10/24 07:40:25;;;;;;;26.48;8.07;;;;;;;19.32;68.78;101184.63;6136673;23;20347;-81
2022/10/24 07:43:09;;;;;;;41.33;8.00;;;;;;;19.55;68.60;101195.78;6137405;23;20028;-80
2022/10/24 07:45:54;;;;;;;26.20;7.28;;;;;;;19.47;68.47;101186.53;6137549;23;20347;-78
2022/10/24 07:48:41;;;;;;;16.88;6.63;;;;;;;19.53;68.50;101190.63;6138798;23;20357;-77
2022/10/24 07:51:27;;;;;;;28.35;9.20;;;;;;;19.78;68.08;101204.09;6132181;23;20024;-80
2022/10/24 07:54:12;;;;;;;21.67;8.70;;;;;;;19.92;67.42;101204.34;6136407;23;20025;-81
2022/10/24 07:56:56;;;;;;;28.58;10.68;;;;;;;19.70;68.72;101200.41;6137183;23;20025;-80
2022/10/24 07:59:41;;;;;;;25.05;10.70;;;;;;;19.93;68.26;101194.91;6136129;23;20021;-80
2022/10/24 08:02:25;;;;;;;;;;;;;;;20.10;68.28;101177.88;6125646;23;20028;-79
2022/10/24 08:05:10;;;;;;;30.20;12.55;;;;;;;20.26;68.83;101175.78;6132664;23;19908;-84
2022/10/24 08:07:58;;;;;;;38.83;11.32;;;;;;;20.41;67.98;101185.94;6134422;23;20467;-82
2022/10/24 08:10:43;;;;;;;27.80;9.90;;;;;;;20.52;67.72;101193.59;6131297;23;20359;-80
2022/10/24 08:13:28;;;;;;;31.77;11.20;;;;;;;20.63;67.24;101202.81;6132734;23;20351;-81
2022/10/24 08:16:15;;;;;;;23.38;10.15;;;;;;;20.75;67.50;101205.38;6133369;23;20026;-82
2022/10/24 08:18:59;;;;;;;23.92;10.05;;;;;;;20.68;67.58;101219.09;6133042;23;20018;-80
2022/10/24 08:21:44;;;;;;;19.77;11.00;;;;;;;20.70;67.64;101222.28;6142049;23;20040;-84
2022/10/24 08:24:29;;;;;;;26.45;10.93;;;;;;;20.83;67.94;101216.16;6163682;23;20474;-83
2022/10/24 08:27:14;;;;;;;23.73;10.50;;;;;;;21.13;67.38;101212.66;6164507;23;20028;-81
2022/10/24 08:29:58;;;;;;;16.77;9.20;;;;;;;21.05;67.43;101211.75;6143883;23;20573;-81
2022/10/24 08:32:44;;;;;;;;;;;;;;;21.17;66.84;101208.78;6156394;23;20024;-80
2022/10/24 08:35:28;;;;;;;25.70;9.50;;;;;;;21.17;66.79;101203.25;6143604;23;20338;-82
2022/10/24 08:38:13;;;;;;;20.27;10.10;;;;;;;21.13;67.47;101212.66;6165985;23;20020;-80
2022/10/24 08:40:59;;;;;;;32.17;9.93;;;;;;;20.95;68.31;101217.13;6163227;23;20494;-81
2022/10/24 08:43:43;;;;;;;17.60;10.68;;;;;;;20.93;68.31;101214.72;6165317;23;20020;-79
2022/10/24 08:46:31;;;;;;;19.40;8.85;;;;;;;20.71;68.43;101210.88;6165824;23;20462;-79
2022/10/24 08:49:28;;;;;;;23.15;10.50;;;;;;;20.61;69.48;101202.41;6165615;23;20028;-82
2022/10/24 08:52:31;;;;;;;21.95;11.95;;;;;;;20.53;70.08;101190.44;6143260;23;20027;-79
2022/10/24 08:55:37;;;;;;;24.17;10.00;;;;;;;20.38;70.19;101183.88;6165502;23;20021;-81
2022/10/24 08:58:29;;;;;;;26.00;10.77;;;;;;;20.21;70.90;101175.28;6143575;23;20021;-80
2022/10/24 09:01:31;;;;;;;19.13;9.90;;;;;;;20.26;71.56;101181.31;6161825;23;20013;-80
2022/10/24 09:04:21;;;;;;;26.33;10.35;;;;;;;20.34;71.70;101193.28;6165495;23;20025;-80
2022/10/24 09:07:14;;;;;;;23.67;12.20;;;;;;;20.36;71.62;101197.28;6165751;23;20017;-80
2022/10/24 09:10:14;;;;;;;28.42;11.00;;;;;;;20.43;72.20;101182.78;6143539;23;20458;-80
2022/10/24 09:12:59;;;;;;;26.00;11.23;;;;;;;20.35;72.83;101168.06;6143294;23;20021;-80
2022/10/24 09:15:45;;;;;;;;;;;;;;;20.45;72.11;101180.44;6143903;23;20013;-81
2022/10/24 09:18:43;;;;;;;;;;;;;;;20.75;71.37;101177.75;6166247;23;19908;-82
2022/10/24 09:21:28;;;;;;;25.58;11.35;;;;;;;21.22;70.41;101168.94;6160586;23;20261;-78
2022/10/24 09:24:31;;;;;;;33.58;10.52;;;;;;;21.74;67.90;101177.03;6143216;23;20044;-80
2022/10/24 09:27:22;;;;;;;23.10;9.73;;;;;;;22.18;65.73;101168.81;6165406;23;20351;-80
2022/10/24 09:30:15;;;;;;;19.88;10.48;;;;;;;22.01;66.61;101157.56;6165419;23;20025;-80
2022/10/24 09:33:14;;;;;;;33.10;11.02;;;;;;;22.16;66.29;101173.13;6143285;23;20018;-80
2022/10/24 09:36:02;;;;;;;24.95;11.05;;;;;;;22.16;65.86;101176.69;6165150;23;20074;-81
2022/10/24 09:38:50;;;;;;;19.35;9.60;;;;;;;22.24;65.38;101172.03;6142968;23;20028;-81
2022/10/24 09:41:35;;;;;;;22.33;10.88;;;;;;;22.07;65.89;101154.06;6160108;23;20074;-80
2022/10/24 09:44:36;;;;;;;21.17;10.55;;;;;;;22.23;65.70;101148.25;6142783;23;20347;-81
2022/10/24 09:47:26;;;;;;;19.10;10.20;;;;;;;22.27;65.65;101139.97;6165371;23;20029;-82
2022/10/24 09:50:22;;;;;;;27.42;10.38;;;;;;;22.53;64.57;101159.16;6143209;23;20478;-81
2022/10/24 09:53:21;;;;;;;23.20;9.85;;;;;;;22.67;63.51;101167.56;6142785;23;20020;-80
2022/10/24 09:56:13;;;;;;;22.83;9.73;;;;;;;22.90;62.86;101170.94;6165119;23;20021;-80
2022/10/24 09:59:24;;;;;;;33.45;10.73;;;;;;;23.08;62.13;101171.00;6165024;23;20074;-81
2022/10/24 10:02:26;;;;;;;14.75;8.25;;;;;;;22.82;63.04;101166.50;6157419;23;20018;-80
2022/10/24 10:05:16;;;;;;;23.00;9.10;;;;;;;22.58;62.95;101164.34;6142866;23;20017;-80
2022/10/24 10:08:09;;;;;;;18.70;9.48;;;;;;;22.39;64.33;101156.31;6165383;23;20024;-81
2022/10/24 10:11:01;;;;;;;24.83;9.48;;;;;;;22.40;64.14;101164.22;6162844;23;20025;-81
2022/10/24 10:13:52;;;;;;;17.00;8.18;;;;;;;22.51;63.83;101170.63;6142638;23;20024;-80
2022/10/24 10:16:37;;;;;;;20.85;9.57;;;;;;;22.69;62.91;101158.88;6142804;23;20367;-80
2022/10/24 10:19:23;;;;;;;24.02;9.25;;;;;;;22.82;62.55;101174.03;6142892;23;20029;-81
2022/10/24 10:22:27;;;;;;;18.52;8.00;;;;;;;22.86;61.97;101163.75;6157393;23;20020;-82
2022/10/24 10:25:29;;;;;;;21.88;9.65;;;;;;;22.82;62.52;101158.19;6164839;23;20025;-82
2022/10/24 10:28:22;;;;;;;23.92;10.38;;;;;;;22.82;62.59;101160.97;6142691;23;20025;-80
2022/10/24 10:31:09;;;;;;;30.63;11.50;;;;;;;22.57;63.01;101158.00;6156698;23;20021;-81
2022/10/24 10:33:59;;;;;;;15.38;8.85;;;;;;;22.54;62.96;101163.53;6141385;23;20474;-81
2022/10/24 10:36:47;;;;;;;16.85;9.05;;;;;;;22.44;63.98;101145.66;6142040;23;20032;-83
2022/10/24 10:39:54;;;;;;;14.93;8.00;;;;;;;22.50;62.94;101141.31;6167481;23;20044;-84
2022/10/24 10:42:54;;;;;;;18.48;8.70;;;;;;;22.84;61.58;101138.41;6159596;23;20029;-85
2022/10/24 10:45:47;;;;;;;21.38;8.32;;;;;;;22.97;61.83;101142.41;6143287;23;20485;-81
2022/10/24 10:48:40;;;;;;;21.88;8.98;;;;;;;23.03;61.40;101140.88;6142587;23;20342;-82
2022/10/24 10:51:31;;;;;;;24.98;9.70;;;;;;;23.05;60.70;101132.97;6159931;23;20040;-81
2022/10/24 10:54:28;;;;;;;23.35;8.20;;;;;;;23.37;60.53;101114.41;6164398;23;20355;-81
2022/10/24 10:57:23;;;;;;;14.68;8.75;;;;;;;23.50;59.73;101109.34;6142686;23;20032;-85
2022/10/24 11:00:13;;;;;;;25.95;8.93;;;;;;;23.51;58.94;101099.03;6141965;23;20020;-85
2022/10/24 11:03:11;;;;;;;18.85;8.15;;;;;;;23.47;58.90;101110.09;6141811;23;20028;-83
2022/10/24 11:06:40;;;;;;;15.45;7.95;;;;;;;23.51;58.52;101122.03;6142468;23;20240;-83
2022/10/24 11:09:47;;;;;;;19.52;7.95;;;;;;;23.35;58.79;101102.13;6163622;23;20489;-80
2022/10/24 11:12:37;;;;;;;17.48;9.10;;;;;;;23.46;58.69;101091.88;6141602;23;20028;-83
2022/10/24 11:15:33;;;;;;;14.40;8.18;;;;;;;23.49;59.12;101107.75;6142307;23;20040;-82
2022/10/24 11:18:26;;;;;;;16.95;7.45;;;;;;;23.44;58.82;101094.22;6142597;23;20024;-83
2022/10/24 11:21:17;;;;;;;13.18;7.68;;;;;;;23.61;58.52;101087.16;6142136;23;20020;-81
2022/10/24 11:24:10;;;;;;;25.88;9.52;;;;;;;23.77;58.24;101082.00;6142174;23;20024;-82
2022/10/24 11:27:23;;;;;;;21.88;8.73;;;;;;;23.57;58.60;101073.25;6164200;23;20044;-82
2022/10/24 11:30:16;;;;;;;24.80;8.43;;;;;;;23.66;58.90;101081.22;6142174;23;20020;-80
2022/10/24 11:33:06;;;;;;;22.92;8.13;;;;;;;23.68;58.59;101073.25;6164160;23;20024;-82
2022/10/24 11:36:25;;;;;;;24.77;8.85;;;;;;;24.05;57.62;101075.66;6164575;23;20024;-85
2022/10/24 11:39:32;;;;;;;17.63;8.50;;;;;;;24.24;57.24;101083.59;6142412;23;20024;-82
2022/10/24 11:42:28;;;;;;;19.23;8.60;;;;;;;24.25;56.74;101072.09;6139390;23;20029;-84
2022/10/24 11:45:25;;;;;;;48.97;7.93;;;;;;;24.19;56.44;101064.53;6140138;23;20028;-82
2022/10/24 11:48:18;;;;;;;26.25;9.27;;;;;;;24.15;56.40;101064.53;6163477;23;20489;-82
2022/10/24 11:51:29;;;;;;;17.10;7.90;;;;;;;24.18;56.06;101058.19;6141888;23;20362;-84
2022/10/24 11:54:25;;;;;;;18.60;8.20;;;;;;;24.44;54.77;101056.94;6141926;23;20024;-82
2022/10/24 11:57:20;;;;;;;20.23;7.85;;;;;;;24.63;54.97;101048.16;6142150;23;20028;-82
2022/10/24 12:00:05;;;;;;;27.88;7.72;;;;;;;24.93;54.17;101035.75;6142111;23;20350;-84
2022/10/24 12:03:23;;;;;;;19.50;7.20;;;;;;;25.10;53.95;101034.84;6163613;23;20040;-82
2022/10/24 12:06:44;;;;;;;18.40;6.50;;;;;;;25.17;52.33;101028.44;6142238;23;20024;-82
2022/10/24 12:09:49;;;;;;;22.20;8.57;;;;;;;25.28;52.32;101018.84;6164294;23;20027;-83
2022/10/24 12:12:46;;;;;;;12.38;6.97;;;;;;;25.10;52.81;101007.81;6141518;23;20025;-82
2022/10/24 12:15:47;;;;;;;18.45;6.00;;;;;;;24.97;52.95;101005.91;6142016;23;20486;-84
2022/10/24 12:18:46;;;;;;;19.35;6.93;;;;;;;24.66;54.00;101015.97;6163859;23;20087;-83
2022/10/24 12:21:47;;;;;;;22.10;7.80;;;;;;;25.42;52.17;101024.31;6141573;23;20366;-82
2022/10/24 12:24:37;;;;;;;22.33;7.20;;;;;;;26.25;49.48;101008.50;6163733;23;20024;-81
2022/10/24 12:27:25;;;;;;;27.67;7.05;;;;;;;26.90;47.50;100982.19;6141973;23;20374;-83
2022/10/24 12:30:20;;;;;;;16.85;6.93;;;;;;;28.08;44.59;100993.84;6141969;23;20029;-83
2022/10/24 12:33:25;;;;;;;18.23;7.57;;;;;;;28.22;44.03;101000.41;6141382;23;20482;-83
2022/10/24 12:37:00;;;;;;;15.80;7.15;;;;;;;28.64;43.62;100996.75;5046485;27;1986458;-82
2022/10/24 12:39:50;;;;;;;19.38;6.40;;;;;;;28.56;43.40;100995.28;5089398;28;20040;-82
2022/10/24 12:42:35;;;;;;;20.67;7.07;;;;;;;30.26;39.44;100982.81;5055570;28;20040;-83
2022/10/24 12:45:29;;;;;;;24.83;6.35;;;;;;;29.59;40.28;100973.38;5055038;28;20415;-81
2022/10/24 12:48:32;;;;;;;18.90;7.65;;;;;;;29.84;40.18;100973.50;5069047;28;20048;-83
2022/10/24 12:51:35;;;;;;;11.20;5.95;;;;;;;30.28;39.30;100971.91;5068866;28;20060;-82
2022/10/24 12:54:41;;;;;;;13.63;6.57;;;;;;;29.90;39.88;100963.34;5068740;28;20052;-83
2022/10/24 12:57:36;;;;;;;20.77;6.85;;;;;;;29.59;40.62;100956.53;5056089;28;20055;-83
2022/10/24 13:00:32;;;;;;;22.90;7.25;;;;;;;30.90;38.23;100950.03;5054204;28;20044;-87
2022/10/24 13:03:52;;;;;;;22.15;7.07;;;;;;;27.81;44.09;100942.03;5057006;28;20510;-81
2022/10/24 13:07:13;;;;;;;16.70;6.68;;;;;;;27.13;46.17;100948.72;5059084;28;20079;-83
2022/10/24 13:10:26;;;;;;;18.30;6.95;;;;;;;26.45;47.42;100969.59;5068603;28;20052;-83
2022/10/24 13:13:44;;;;;;;19.67;6.90;;;;;;;27.04;47.14;100936.50;5058443;28;20526;-83